SAVY/PMY METAR and TAF weather

Enter ICAO airport designator
Station Type Date Time Source
SAVY METAR 2018/10/22 16:25 UTC NOAA

SAVY 221625Z 18010KT 5000 SCT018 BKN025 FEW045CB 10/07 Q1021


Station Type Date Time Source
SAVY Decoded METAR 2018/10/22 16:25 UTC NOAA

Puerto Madryn, CHT, Argentina (SAVY) 42-45-33S 065-06-10W
Oct 22, 2018 - 12:25 PM EDT / 2018.10.22 1625 UTC
Wind: from the S (180 degrees) at 12 MPH (10 KT):0
Visibility: 3 mile(s):0
Sky conditions: mostly cloudy
Weather: Cumulonimbus clouds observed
Temperature: 50 F (10 C)
Dew Point: 44 F (7 C)
Relative Humidity: 81%
Pressure (altimeter): 30.15 in. Hg (1021 hPa)
ob: SAVY 221625Z 18010KT 5000 SCT018 BKN025 FEW045CB 10/07 Q1021
cycle: 16

Station Type Date Time Source
SAVY TAF UTC NOAA

Error!


Example: see airport list